sensor_id;sensor_type;location;lat;lon;timestamp;P1;durP1;ratioP1;P2;durP2;ratioP2
8572;SDS011;4324;42.012;24.872;2023-02-26T00:02:15;10.73;;;4.60;;
8572;SDS011;4324;42.012;24.872;2023-02-26T00:04:41;10.67;;;5.07;;
8572;SDS011;4324;42.012;24.872;2023-02-26T00:07:08;14.37;;;5.13;;
8572;SDS011;4324;42.012;24.872;2023-02-26T00:09:37;11.60;;;5.33;;
8572;SDS011;4324;42.012;24.872;2023-02-26T00:12:04;9.73;;;5.00;;
8572;SDS011;4324;42.012;24.872;2023-02-26T00:14:31;17.17;;;5.80;;
8572;SDS011;4324;42.012;24.872;2023-02-26T00:17:13;16.73;;;5.87;;
8572;SDS011;4324;42.012;24.872;2023-02-26T00:19:52;13.40;;;4.67;;
8572;SDS011;4324;42.012;24.872;2023-02-26T00:22:19;12.87;;;5.13;;
8572;SDS011;4324;42.012;24.872;2023-02-26T00:24:48;13.20;;;5.50;;
8572;SDS011;4324;42.012;24.872;2023-02-26T00:27:15;12.93;;;5.37;;
8572;SDS011;4324;42.012;24.872;2023-02-26T00:29:42;8.97;;;4.90;;
8572;SDS011;4324;42.012;24.872;2023-02-26T00:32:10;10.13;;;4.73;;
8572;SDS011;4324;42.012;24.872;2023-02-26T00:34:42;11.20;;;5.10;;
8572;SDS011;4324;42.012;24.872;2023-02-26T00:37:12;16.07;;;5.10;;
8572;SDS011;4324;42.012;24.872;2023-02-26T00:39:49;13.53;;;5.33;;
8572;SDS011;4324;42.012;24.872;2023-02-26T00:42:22;11.73;;;4.90;;
8572;SDS011;4324;42.012;24.872;2023-02-26T00:44:50;13.80;;;5.23;;
8572;SDS011;4324;42.012;24.872;2023-02-26T00:47:19;16.57;;;6.00;;
8572;SDS011;4324;42.012;24.872;2023-02-26T00:49:55;17.10;;;5.10;;
8572;SDS011;4324;42.012;24.872;2023-02-26T00:52:32;14.40;;;5.33;;
8572;SDS011;4324;42.012;24.872;2023-02-26T00:55:06;12.03;;;5.13;;
8572;SDS011;4324;42.012;24.872;2023-02-26T00:57:35;11.40;;;5.00;;
8572;SDS011;4324;42.012;24.872;2023-02-26T01:00:02;12.47;;;5.40;;
8572;SDS011;4324;42.012;24.872;2023-02-26T01:02:32;13.27;;;5.47;;
8572;SDS011;4324;42.012;24.872;2023-02-26T01:05:00;15.30;;;5.30;;
8572;SDS011;4324;42.012;24.872;2023-02-26T01:07:28;11.73;;;5.47;;
8572;SDS011;4324;42.012;24.872;2023-02-26T01:10:02;11.00;;;5.90;;
8572;SDS011;4324;42.012;24.872;2023-02-26T01:12:32;9.73;;;5.23;;
8572;SDS011;4324;42.012;24.872;2023-02-26T01:14:59;14.73;;;5.80;;
8572;SDS011;4324;42.012;24.872;2023-02-26T01:17:27;18.67;;;5.40;;
8572;SDS011;4324;42.012;24.872;2023-02-26T01:19:59;10.40;;;5.60;;
8572;SDS011;4324;42.012;24.872;2023-02-26T01:22:32;14.67;;;5.80;;
8572;SDS011;4324;42.012;24.872;2023-02-26T01:25:04;15.13;;;5.90;;
8572;SDS011;4324;42.012;24.872;2023-02-26T01:27:35;15.27;;;6.17;;
8572;SDS011;4324;42.012;24.872;2023-02-26T01:30:03;12.33;;;5.87;;
8572;SDS011;4324;42.012;24.872;2023-02-26T01:32:35;12.23;;;6.20;;
8572;SDS011;4324;42.012;24.872;2023-02-26T01:35:10;16.73;;;5.87;;
8572;SDS011;4324;42.012;24.872;2023-02-26T01:37:46;13.17;;;5.77;;
8572;SDS011;4324;42.012;24.872;2023-02-26T01:40:26;12.03;;;5.13;;
8572;SDS011;4324;42.012;24.872;2023-02-26T01:43:04;13.47;;;5.30;;
8572;SDS011;4324;42.012;24.872;2023-02-26T01:45:37;15.67;;;5.30;;
8572;SDS011;4324;42.012;24.872;2023-02-26T01:48:17;10.57;;;5.50;;
8572;SDS011;4324;42.012;24.872;2023-02-26T01:50:54;12.50;;;5.53;;
8572;SDS011;4324;42.012;24.872;2023-02-26T01:53:21;12.83;;;5.10;;
8572;SDS011;4324;42.012;24.872;2023-02-26T01:55:51;15.57;;;5.33;;
8572;SDS011;4324;42.012;24.872;2023-02-26T01:58:23;13.67;;;5.83;;
8572;SDS011;4324;42.012;24.872;2023-02-26T02:00:53;14.57;;;6.00;;
8572;SDS011;4324;42.012;24.872;2023-02-26T02:03:20;12.17;;;5.33;;
8572;SDS011;4324;42.012;24.872;2023-02-26T02:05:52;13.30;;;6.27;;
8572;SDS011;4324;42.012;24.872;2023-02-26T02:08:21;13.90;;;6.40;;
8572;SDS011;4324;42.012;24.872;2023-02-26T02:10:49;10.30;;;6.57;;
8572;SDS011;4324;42.012;24.872;2023-02-26T02:13:19;11.93;;;5.33;;
8572;SDS011;4324;42.012;24.872;2023-02-26T02:15:59;10.77;;;6.13;;
8572;SDS011;4324;42.012;24.872;2023-02-26T02:18:37;13.83;;;5.87;;
8572;SDS011;4324;42.012;24.872;2023-02-26T02:24:19;12.50;;;5.57;;
8572;SDS011;4324;42.012;24.872;2023-02-26T02:27:01;11.33;;;5.23;;
8572;SDS011;4324;42.012;24.872;2023-02-26T02:32:49;14.43;;;5.73;;
8572;SDS011;4324;42.012;24.872;2023-02-26T02:35:20;9.13;;;5.27;;
8572;SDS011;4324;42.012;24.872;2023-02-26T02:37:53;9.93;;;5.90;;
8572;SDS011;4324;42.012;24.872;2023-02-26T02:40:24;11.37;;;5.00;;
8572;SDS011;4324;42.012;24.872;2023-02-26T02:42:57;13.80;;;5.53;;
8572;SDS011;4324;42.012;24.872;2023-02-26T02:45:28;11.73;;;5.40;;
8572;SDS011;4324;42.012;24.872;2023-02-26T02:48:02;16.20;;;5.80;;
8572;SDS011;4324;42.012;24.872;2023-02-26T02:50:35;12.50;;;5.97;;
8572;SDS011;4324;42.012;24.872;2023-02-26T02:53:08;11.73;;;6.07;;
8572;SDS011;4324;42.012;24.872;2023-02-26T02:55:40;12.70;;;6.00;;
8572;SDS011;4324;42.012;24.872;2023-02-26T02:58:16;10.10;;;5.20;;
8572;SDS011;4324;42.012;24.872;2023-02-26T03:00:47;13.77;;;6.03;;
8572;SDS011;4324;42.012;24.872;2023-02-26T03:03:18;12.57;;;5.80;;
8572;SDS011;4324;42.012;24.872;2023-02-26T03:05:50;12.00;;;5.77;;
8572;SDS011;4324;42.012;24.872;2023-02-26T03:08:18;10.20;;;5.23;;
8572;SDS011;4324;42.012;24.872;2023-02-26T03:10:48;13.90;;;5.80;;
8572;SDS011;4324;42.012;24.872;2023-02-26T03:13:15;14.73;;;5.00;;
8572;SDS011;4324;42.012;24.872;2023-02-26T03:15:45;14.53;;;5.40;;
8572;SDS011;4324;42.012;24.872;2023-02-26T03:18:22;12.70;;;6.17;;
8572;SDS011;4324;42.012;24.872;2023-02-26T03:20:57;11.90;;;5.87;;
8572;SDS011;4324;42.012;24.872;2023-02-26T03:23:33;10.87;;;5.13;;
8572;SDS011;4324;42.012;24.872;2023-02-26T03:26:07;13.90;;;5.80;;
8572;SDS011;4324;42.012;24.872;2023-02-26T03:28:39;13.97;;;5.77;;
8572;SDS011;4324;42.012;24.872;2023-02-26T03:31:11;15.53;;;5.63;;
8572;SDS011;4324;42.012;24.872;2023-02-26T03:33:46;15.77;;;6.30;;
8572;SDS011;4324;42.012;24.872;2023-02-26T03:36:19;12.77;;;6.60;;
8572;SDS011;4324;42.012;24.872;2023-02-26T03:38:52;11.33;;;6.63;;
8572;SDS011;4324;42.012;24.872;2023-02-26T03:41:26;12.37;;;6.43;;
8572;SDS011;4324;42.012;24.872;2023-02-26T03:43:58;12.93;;;5.87;;
8572;SDS011;4324;42.012;24.872;2023-02-26T03:46:29;15.60;;;6.50;;
8572;SDS011;4324;42.012;24.872;2023-02-26T03:49:02;12.97;;;6.13;;
8572;SDS011;4324;42.012;24.872;2023-02-26T03:51:34;14.10;;;7.83;;
8572;SDS011;4324;42.012;24.872;2023-02-26T03:54:03;15.80;;;6.30;;
8572;SDS011;4324;42.012;24.872;2023-02-26T03:56:33;11.97;;;6.33;;
8572;SDS011;4324;42.012;24.872;2023-02-26T03:59:04;9.03;;;5.90;;
8572;SDS011;4324;42.012;24.872;2023-02-26T04:01:32;14.47;;;6.20;;
8572;SDS011;4324;42.012;24.872;2023-02-26T04:04:05;20.30;;;6.80;;
8572;SDS011;4324;42.012;24.872;2023-02-26T04:06:36;17.20;;;6.30;;
8572;SDS011;4324;42.012;24.872;2023-02-26T04:09:04;17.20;;;6.47;;
8572;SDS011;4324;42.012;24.872;2023-02-26T04:11:31;10.53;;;5.13;;
8572;SDS011;4324;42.012;24.872;2023-02-26T04:14:00;12.67;;;6.10;;
8572;SDS011;4324;42.012;24.872;2023-02-26T04:16:27;13.87;;;6.60;;
8572;SDS011;4324;42.012;24.872;2023-02-26T04:18:54;13.50;;;6.50;;
8572;SDS011;4324;42.012;24.872;2023-02-26T04:21:22;11.37;;;6.60;;
8572;SDS011;4324;42.012;24.872;2023-02-26T04:23:49;14.90;;;6.47;;
8572;SDS011;4324;42.012;24.872;2023-02-26T04:26:16;9.33;;;6.07;;
8572;SDS011;4324;42.012;24.872;2023-02-26T04:28:43;12.43;;;6.67;;
8572;SDS011;4324;42.012;24.872;2023-02-26T04:31:12;17.73;;;7.10;;
8572;SDS011;4324;42.012;24.872;2023-02-26T04:33:39;14.57;;;7.37;;
8572;SDS011;4324;42.012;24.872;2023-02-26T04:36:06;17.90;;;7.33;;
8572;SDS011;4324;42.012;24.872;2023-02-26T04:38:36;15.87;;;6.70;;
8572;SDS011;4324;42.012;24.872;2023-02-26T04:41:03;13.80;;;6.80;;
8572;SDS011;4324;42.012;24.872;2023-02-26T04:43:30;15.37;;;7.10;;
8572;SDS011;4324;42.012;24.872;2023-02-26T04:45:57;13.70;;;7.17;;
8572;SDS011;4324;42.012;24.872;2023-02-26T04:48:24;16.27;;;8.97;;
8572;SDS011;4324;42.012;24.872;2023-02-26T04:50:51;24.77;;;10.47;;
8572;SDS011;4324;42.012;24.872;2023-02-26T04:53:17;15.37;;;7.43;;
8572;SDS011;4324;42.012;24.872;2023-02-26T04:55:47;16.80;;;6.43;;
8572;SDS011;4324;42.012;24.872;2023-02-26T04:58:15;14.10;;;6.97;;
8572;SDS011;4324;42.012;24.872;2023-02-26T05:00:42;22.90;;;9.63;;
8572;SDS011;4324;42.012;24.872;2023-02-26T05:03:09;17.03;;;7.63;;
8572;SDS011;4324;42.012;24.872;2023-02-26T05:05:37;18.73;;;9.13;;
8572;SDS011;4324;42.012;24.872;2023-02-26T05:08:04;16.30;;;7.87;;
8572;SDS011;4324;42.012;24.872;2023-02-26T05:10:31;13.77;;;7.40;;
8572;SDS011;4324;42.012;24.872;2023-02-26T05:12:59;14.43;;;6.20;;
8572;SDS011;4324;42.012;24.872;2023-02-26T05:15:26;16.97;;;9.93;;
8572;SDS011;4324;42.012;24.872;2023-02-26T05:17:53;18.87;;;10.03;;
8572;SDS011;4324;42.012;24.872;2023-02-26T05:20:20;16.30;;;8.33;;
8572;SDS011;4324;42.012;24.872;2023-02-26T05:22:47;22.20;;;9.93;;
8572;SDS011;4324;42.012;24.872;2023-02-26T05:25:14;17.63;;;8.60;;
8572;SDS011;4324;42.012;24.872;2023-02-26T05:27:41;24.17;;;11.90;;
8572;SDS011;4324;42.012;24.872;2023-02-26T05:30:10;25.20;;;10.20;;
8572;SDS011;4324;42.012;24.872;2023-02-26T05:32:41;13.90;;;8.10;;
8572;SDS011;4324;42.012;24.872;2023-02-26T05:35:08;18.87;;;9.63;;
8572;SDS011;4324;42.012;24.872;2023-02-26T05:37:36;18.23;;;10.03;;
8572;SDS011;4324;42.012;24.872;2023-02-26T05:40:03;29.80;;;9.00;;
8572;SDS011;4324;42.012;24.872;2023-02-26T05:42:34;19.97;;;9.47;;
8572;SDS011;4324;42.012;24.872;2023-02-26T05:45:01;25.10;;;8.80;;
8572;SDS011;4324;42.012;24.872;2023-02-26T05:47:31;33.30;;;15.30;;
8572;SDS011;4324;42.012;24.872;2023-02-26T05:49:59;26.83;;;12.53;;
8572;SDS011;4324;42.012;24.872;2023-02-26T05:52:26;15.57;;;6.30;;
8572;SDS011;4324;42.012;24.872;2023-02-26T05:54:53;17.40;;;7.27;;
8572;SDS011;4324;42.012;24.872;2023-02-26T05:57:20;14.40;;;7.70;;
8572;SDS011;4324;42.012;24.872;2023-02-26T05:59:47;15.67;;;6.10;;
8572;SDS011;4324;42.012;24.872;2023-02-26T06:02:14;16.23;;;6.20;;
8572;SDS011;4324;42.012;24.872;2023-02-26T06:04:42;18.70;;;6.97;;
8572;SDS011;4324;42.012;24.872;2023-02-26T06:07:09;18.93;;;8.10;;
8572;SDS011;4324;42.012;24.872;2023-02-26T06:09:37;18.43;;;7.03;;
8572;SDS011;4324;42.012;24.872;2023-02-26T06:12:04;14.83;;;6.63;;
8572;SDS011;4324;42.012;24.872;2023-02-26T06:14:31;18.53;;;6.40;;
8572;SDS011;4324;42.012;24.872;2023-02-26T06:16:58;10.73;;;6.07;;
8572;SDS011;4324;42.012;24.872;2023-02-26T06:19:25;16.23;;;5.83;;
8572;SDS011;4324;42.012;24.872;2023-02-26T06:21:54;12.80;;;6.13;;
8572;SDS011;4324;42.012;24.872;2023-02-26T06:24:20;21.03;;;6.53;;
8572;SDS011;4324;42.012;24.872;2023-02-26T06:26:47;16.40;;;6.40;;
8572;SDS011;4324;42.012;24.872;2023-02-26T06:29:14;14.33;;;5.93;;
8572;SDS011;4324;42.012;24.872;2023-02-26T06:31:44;16.53;;;7.07;;
8572;SDS011;4324;42.012;24.872;2023-02-26T06:34:11;20.60;;;7.10;;
8572;SDS011;4324;42.012;24.872;2023-02-26T06:36:38;24.40;;;6.67;;
8572;SDS011;4324;42.012;24.872;2023-02-26T06:39:06;19.13;;;6.30;;
8572;SDS011;4324;42.012;24.872;2023-02-26T06:41:33;14.70;;;6.20;;
8572;SDS011;4324;42.012;24.872;2023-02-26T06:44:00;21.40;;;11.23;;
8572;SDS011;4324;42.012;24.872;2023-02-26T06:46:27;19.23;;;7.43;;
8572;SDS011;4324;42.012;24.872;2023-02-26T06:48:54;17.83;;;6.77;;
8572;SDS011;4324;42.012;24.872;2023-02-26T06:51:21;14.57;;;6.70;;
8572;SDS011;4324;42.012;24.872;2023-02-26T06:53:48;19.27;;;7.33;;
8572;SDS011;4324;42.012;24.872;2023-02-26T06:56:16;15.97;;;6.87;;
8572;SDS011;4324;42.012;24.872;2023-02-26T06:58:43;15.93;;;6.23;;
8572;SDS011;4324;42.012;24.872;2023-02-26T07:01:10;19.73;;;6.57;;
8572;SDS011;4324;42.012;24.872;2023-02-26T07:03:37;17.10;;;6.83;;
8572;SDS011;4324;42.012;24.872;2023-02-26T07:06:04;16.70;;;6.63;;
8572;SDS011;4324;42.012;24.872;2023-02-26T07:08:33;16.63;;;7.77;;
8572;SDS011;4324;42.012;24.872;2023-02-26T07:11:00;16.63;;;6.70;;
8572;SDS011;4324;42.012;24.872;2023-02-26T07:13:29;18.67;;;6.43;;
8572;SDS011;4324;42.012;24.872;2023-02-26T07:15:56;16.57;;;7.37;;
8572;SDS011;4324;42.012;24.872;2023-02-26T07:18:23;17.97;;;6.13;;
8572;SDS011;4324;42.012;24.872;2023-02-26T07:20:50;16.50;;;7.53;;
8572;SDS011;4324;42.012;24.872;2023-02-26T07:23:17;17.73;;;6.03;;
8572;SDS011;4324;42.012;24.872;2023-02-26T07:25:44;18.57;;;5.97;;
8572;SDS011;4324;42.012;24.872;2023-02-26T07:28:10;12.87;;;6.00;;
8572;SDS011;4324;42.012;24.872;2023-02-26T07:30:39;21.77;;;6.33;;
8572;SDS011;4324;42.012;24.872;2023-02-26T07:33:06;14.93;;;5.97;;
8572;SDS011;4324;42.012;24.872;2023-02-26T07:35:33;14.97;;;6.07;;
8572;SDS011;4324;42.012;24.872;2023-02-26T07:38:00;13.20;;;5.43;;
8572;SDS011;4324;42.012;24.872;2023-02-26T07:40:27;19.73;;;6.47;;
8572;SDS011;4324;42.012;24.872;2023-02-26T07:42:54;16.93;;;6.73;;
8572;SDS011;4324;42.012;24.872;2023-02-26T07:45:21;22.47;;;7.27;;
8572;SDS011;4324;42.012;24.872;2023-02-26T07:47:50;17.03;;;6.67;;
8572;SDS011;4324;42.012;24.872;2023-02-26T07:50:17;15.30;;;6.33;;
8572;SDS011;4324;42.012;24.872;2023-02-26T07:52:45;19.90;;;6.70;;
8572;SDS011;4324;42.012;24.872;2023-02-26T07:55:12;18.23;;;10.63;;
8572;SDS011;4324;42.012;24.872;2023-02-26T07:57:39;21.23;;;7.33;;
8572;SDS011;4324;42.012;24.872;2023-02-26T08:00:06;13.17;;;6.93;;
8572;SDS011;4324;42.012;24.872;2023-02-26T08:02:34;15.73;;;6.37;;
8572;SDS011;4324;42.012;24.872;2023-02-26T08:05:02;15.00;;;5.90;;
8572;SDS011;4324;42.012;24.872;2023-02-26T08:07:30;16.33;;;6.63;;
8572;SDS011;4324;42.012;24.872;2023-02-26T08:09:57;13.87;;;5.90;;
8572;SDS011;4324;42.012;24.872;2023-02-26T08:12:24;19.43;;;6.50;;
8572;SDS011;4324;42.012;24.872;2023-02-26T08:14:51;12.40;;;6.00;;
8572;SDS011;4324;42.012;24.872;2023-02-26T08:17:18;20.07;;;7.97;;
8572;SDS011;4324;42.012;24.872;2023-02-26T08:19:45;18.77;;;6.83;;
8572;SDS011;4324;42.012;24.872;2023-02-26T08:22:13;18.57;;;6.67;;
8572;SDS011;4324;42.012;24.872;2023-02-26T08:24:40;16.70;;;5.60;;
8572;SDS011;4324;42.012;24.872;2023-02-26T08:27:07;17.53;;;6.90;;
8572;SDS011;4324;42.012;24.872;2023-02-26T08:29:34;17.40;;;6.87;;
8572;SDS011;4324;42.012;24.872;2023-02-26T08:32:03;13.10;;;6.17;;
8572;SDS011;4324;42.012;24.872;2023-02-26T08:34:30;19.73;;;7.33;;
8572;SDS011;4324;42.012;24.872;2023-02-26T08:36:57;15.90;;;6.40;;
8572;SDS011;4324;42.012;24.872;2023-02-26T08:39:25;17.50;;;8.83;;
8572;SDS011;4324;42.012;24.872;2023-02-26T08:41:52;17.97;;;8.17;;
8572;SDS011;4324;42.012;24.872;2023-02-26T08:44:19;15.47;;;6.57;;
8572;SDS011;4324;42.012;24.872;2023-02-26T08:46:46;19.07;;;7.80;;
8572;SDS011;4324;42.012;24.872;2023-02-26T08:49:12;21.27;;;8.43;;
8572;SDS011;4324;42.012;24.872;2023-02-26T08:51:39;22.13;;;8.87;;
8572;SDS011;4324;42.012;24.872;2023-02-26T08:54:06;15.80;;;7.10;;
8572;SDS011;4324;42.012;24.872;2023-02-26T08:56:35;14.67;;;6.70;;
8572;SDS011;4324;42.012;24.872;2023-02-26T08:59:02;19.70;;;6.50;;
8572;SDS011;4324;42.012;24.872;2023-02-26T09:01:33;20.50;;;6.80;;
8572;SDS011;4324;42.012;24.872;2023-02-26T09:04:00;21.63;;;7.10;;
8572;SDS011;4324;42.012;24.872;2023-02-26T09:06:27;17.03;;;6.93;;
8572;SDS011;4324;42.012;24.872;2023-02-26T09:08:54;12.97;;;6.70;;
8572;SDS011;4324;42.012;24.872;2023-02-26T09:11:24;18.17;;;5.60;;
8572;SDS011;4324;42.012;24.872;2023-02-26T09:13:58;16.73;;;6.50;;
8572;SDS011;4324;42.012;24.872;2023-02-26T09:16:26;23.30;;;6.63;;
8572;SDS011;4324;42.012;24.872;2023-02-26T09:18:53;19.57;;;6.17;;
8572;SDS011;4324;42.012;24.872;2023-02-26T09:21:20;15.57;;;6.03;;
8572;SDS011;4324;42.012;24.872;2023-02-26T09:23:47;19.70;;;6.07;;
8572;SDS011;4324;42.012;24.872;2023-02-26T09:26:17;15.40;;;5.80;;
8572;SDS011;4324;42.012;24.872;2023-02-26T09:28:44;26.13;;;6.73;;
8572;SDS011;4324;42.012;24.872;2023-02-26T09:31:12;15.03;;;6.17;;
8572;SDS011;4324;42.012;24.872;2023-02-26T09:33:39;15.70;;;6.17;;
8572;SDS011;4324;42.012;24.872;2023-02-26T09:36:06;17.17;;;6.27;;
8572;SDS011;4324;42.012;24.872;2023-02-26T09:38:33;14.73;;;6.10;;
8572;SDS011;4324;42.012;24.872;2023-02-26T09:41:01;13.67;;;5.97;;
8572;SDS011;4324;42.012;24.872;2023-02-26T09:43:48;15.83;;;5.47;;
8572;SDS011;4324;42.012;24.872;2023-02-26T09:46:31;15.23;;;5.57;;
8572;SDS011;4324;42.012;24.872;2023-02-26T09:49:06;20.70;;;5.63;;
8572;SDS011;4324;42.012;24.872;2023-02-26T09:51:43;16.93;;;5.50;;
8572;SDS011;4324;42.012;24.872;2023-02-26T09:54:16;20.10;;;5.93;;
8572;SDS011;4324;42.012;24.872;2023-02-26T09:56:46;15.10;;;5.23;;
8572;SDS011;4324;42.012;24.872;2023-02-26T09:59:15;13.27;;;5.80;;
8572;SDS011;4324;42.012;24.872;2023-02-26T10:01:45;15.17;;;5.90;;
8572;SDS011;4324;42.012;24.872;2023-02-26T10:04:21;15.97;;;5.30;;
8572;SDS011;4324;42.012;24.872;2023-02-26T10:06:55;17.33;;;5.73;;
8572;SDS011;4324;42.012;24.872;2023-02-26T10:09:36;15.93;;;5.70;;
8572;SDS011;4324;42.012;24.872;2023-02-26T10:12:15;22.00;;;5.70;;
8572;SDS011;4324;42.012;24.872;2023-02-26T10:14:47;14.63;;;5.60;;
8572;SDS011;4324;42.012;24.872;2023-02-26T10:17:23;14.80;;;5.43;;
8572;SDS011;4324;42.012;24.872;2023-02-26T10:19:57;14.50;;;6.03;;
8572;SDS011;4324;42.012;24.872;2023-02-26T10:22:30;15.33;;;5.20;;
8572;SDS011;4324;42.012;24.872;2023-02-26T10:25:02;15.50;;;5.17;;
8572;SDS011;4324;42.012;24.872;2023-02-26T10:27:44;10.77;;;5.63;;
8572;SDS011;4324;42.012;24.872;2023-02-26T10:30:20;18.60;;;6.23;;
8572;SDS011;4324;42.012;24.872;2023-02-26T10:32:57;14.43;;;5.60;;
8572;SDS011;4324;42.012;24.872;2023-02-26T10:35:30;11.90;;;5.60;;
8572;SDS011;4324;42.012;24.872;2023-02-26T10:38:02;15.37;;;5.40;;
8572;SDS011;4324;42.012;24.872;2023-02-26T10:40:36;16.83;;;5.90;;
8572;SDS011;4324;42.012;24.872;2023-02-26T10:43:09;14.53;;;5.30;;
8572;SDS011;4324;42.012;24.872;2023-02-26T10:45:44;11.23;;;5.57;;
8572;SDS011;4324;42.012;24.872;2023-02-26T10:48:23;19.97;;;5.30;;
8572;SDS011;4324;42.012;24.872;2023-02-26T10:50:59;17.47;;;6.13;;
8572;SDS011;4324;42.012;24.872;2023-02-26T10:53:35;13.90;;;6.27;;
8572;SDS011;4324;42.012;24.872;2023-02-26T10:56:05;12.53;;;5.37;;
8572;SDS011;4324;42.012;24.872;2023-02-26T10:58:35;16.13;;;6.20;;
8572;SDS011;4324;42.012;24.872;2023-02-26T11:01:03;13.70;;;5.30;;
8572;SDS011;4324;42.012;24.872;2023-02-26T11:03:40;14.20;;;5.97;;
8572;SDS011;4324;42.012;24.872;2023-02-26T11:06:09;17.03;;;6.33;;
8572;SDS011;4324;42.012;24.872;2023-02-26T11:08:43;12.37;;;5.80;;
8572;SDS011;4324;42.012;24.872;2023-02-26T11:11:33;11.70;;;5.40;;
8572;SDS011;4324;42.012;24.872;2023-02-26T11:14:02;12.57;;;5.37;;
8572;SDS011;4324;42.012;24.872;2023-02-26T11:16:29;11.67;;;5.50;;
8572;SDS011;4324;42.012;24.872;2023-02-26T11:18:58;12.83;;;5.50;;
8572;SDS011;4324;42.012;24.872;2023-02-26T11:21:27;16.20;;;6.30;;
8572;SDS011;4324;42.012;24.872;2023-02-26T11:23:57;13.60;;;6.23;;
8572;SDS011;4324;42.012;24.872;2023-02-26T11:26:31;12.80;;;5.50;;
8572;SDS011;4324;42.012;24.872;2023-02-26T11:29:00;14.40;;;5.07;;
8572;SDS011;4324;42.012;24.872;2023-02-26T11:31:28;13.27;;;5.10;;
8572;SDS011;4324;42.012;24.872;2023-02-26T11:33:59;12.57;;;5.97;;
8572;SDS011;4324;42.012;24.872;2023-02-26T11:36:29;12.27;;;4.80;;
8572;SDS011;4324;42.012;24.872;2023-02-26T11:39:00;11.90;;;4.90;;
8572;SDS011;4324;42.012;24.872;2023-02-26T11:41:30;15.10;;;5.53;;
8572;SDS011;4324;42.012;24.872;2023-02-26T11:44:03;15.40;;;6.90;;
8572;SDS011;4324;42.012;24.872;2023-02-26T11:46:35;11.90;;;5.13;;
8572;SDS011;4324;42.012;24.872;2023-02-26T11:49:10;13.53;;;5.50;;
8572;SDS011;4324;42.012;24.872;2023-02-26T11:51:41;13.60;;;4.73;;
8572;SDS011;4324;42.012;24.872;2023-02-26T11:54:18;11.17;;;5.43;;
8572;SDS011;4324;42.012;24.872;2023-02-26T11:56:47;12.50;;;5.57;;
8572;SDS011;4324;42.012;24.872;2023-02-26T11:59:16;11.90;;;5.37;;
8572;SDS011;4324;42.012;24.872;2023-02-26T12:01:44;12.30;;;5.10;;
8572;SDS011;4324;42.012;24.872;2023-02-26T12:04:14;9.47;;;5.30;;
8572;SDS011;4324;42.012;24.872;2023-02-26T12:06:45;12.17;;;4.97;;
8572;SDS011;4324;42.012;24.872;2023-02-26T12:09:14;12.80;;;5.33;;
8572;SDS011;4324;42.012;24.872;2023-02-26T12:11:44;7.40;;;4.80;;
8572;SDS011;4324;42.012;24.872;2023-02-26T12:14:32;13.50;;;4.90;;
8572;SDS011;4324;42.012;24.872;2023-02-26T12:17:30;12.97;;;5.40;;
8572;SDS011;4324;42.012;24.872;2023-02-26T12:20:13;11.03;;;5.27;;
8572;SDS011;4324;42.012;24.872;2023-02-26T12:22:49;13.97;;;4.77;;
8572;SDS011;4324;42.012;24.872;2023-02-26T12:31:40;13.43;;;5.53;;
8572;SDS011;4324;42.012;24.872;2023-02-26T12:34:28;10.83;;;4.70;;
8572;SDS011;4324;42.012;24.872;2023-02-26T12:37:08;12.80;;;5.20;;
8572;SDS011;4324;42.012;24.872;2023-02-26T12:39:54;12.17;;;5.17;;
8572;SDS011;4324;42.012;24.872;2023-02-26T12:42:31;11.80;;;5.50;;
8572;SDS011;4324;42.012;24.872;2023-02-26T12:45:12;14.47;;;5.20;;
8572;SDS011;4324;42.012;24.872;2023-02-26T12:48:02;13.37;;;4.50;;
8572;SDS011;4324;42.012;24.872;2023-02-26T12:50:50;11.13;;;4.97;;
8572;SDS011;4324;42.012;24.872;2023-02-26T12:56:24;9.27;;;5.00;;
8572;SDS011;4324;42.012;24.872;2023-02-26T12:59:11;17.30;;;5.33;;
8572;SDS011;4324;42.012;24.872;2023-02-26T13:01:50;15.50;;;5.77;;
8572;SDS011;4324;42.012;24.872;2023-02-26T13:04:49;10.00;;;5.43;;
8572;SDS011;4324;42.012;24.872;2023-02-26T13:07:41;9.97;;;4.47;;
8572;SDS011;4324;42.012;24.872;2023-02-26T13:10:27;10.13;;;4.70;;
8572;SDS011;4324;42.012;24.872;2023-02-26T13:13:10;8.27;;;4.53;;
8572;SDS011;4324;42.012;24.872;2023-02-26T13:15:57;11.10;;;4.80;;
8572;SDS011;4324;42.012;24.872;2023-02-26T13:18:38;16.40;;;5.77;;
8572;SDS011;4324;42.012;24.872;2023-02-26T13:21:12;14.37;;;5.13;;
8572;SDS011;4324;42.012;24.872;2023-02-26T13:23:45;15.50;;;5.10;;
8572;SDS011;4324;42.012;24.872;2023-02-26T13:26:17;13.30;;;4.60;;
8572;SDS011;4324;42.012;24.872;2023-02-26T13:28:47;13.27;;;5.43;;
8572;SDS011;4324;42.012;24.872;2023-02-26T13:31:19;7.97;;;4.67;;
8572;SDS011;4324;42.012;24.872;2023-02-26T13:33:50;10.40;;;4.97;;
8572;SDS011;4324;42.012;24.872;2023-02-26T13:36:19;11.53;;;5.10;;
8572;SDS011;4324;42.012;24.872;2023-02-26T13:38:52;11.73;;;4.90;;
8572;SDS011;4324;42.012;24.872;2023-02-26T13:41:33;13.13;;;4.93;;
8572;SDS011;4324;42.012;24.872;2023-02-26T13:44:20;9.67;;;4.60;;
8572;SDS011;4324;42.012;24.872;2023-02-26T13:47:01;10.07;;;5.20;;
8572;SDS011;4324;42.012;24.872;2023-02-26T13:49:46;13.47;;;5.47;;
8572;SDS011;4324;42.012;24.872;2023-02-26T13:52:21;11.10;;;5.63;;
8572;SDS011;4324;42.012;24.872;2023-02-26T13:54:50;13.67;;;5.40;;
8572;SDS011;4324;42.012;24.872;2023-02-26T13:57:24;11.10;;;4.80;;
8572;SDS011;4324;42.012;24.872;2023-02-26T14:00:00;11.77;;;5.10;;
8572;SDS011;4324;42.012;24.872;2023-02-26T14:02:44;10.73;;;4.90;;
8572;SDS011;4324;42.012;24.872;2023-02-26T14:05:27;15.17;;;5.07;;
8572;SDS011;4324;42.012;24.872;2023-02-26T14:08:17;10.70;;;4.57;;
8572;SDS011;4324;42.012;24.872;2023-02-26T14:10:53;9.50;;;5.20;;
8572;SDS011;4324;42.012;24.872;2023-02-26T14:13:33;9.97;;;5.00;;
8572;SDS011;4324;42.012;24.872;2023-02-26T14:16:08;12.47;;;5.03;;
8572;SDS011;4324;42.012;24.872;2023-02-26T14:18:40;11.80;;;5.53;;
8572;SDS011;4324;42.012;24.872;2023-02-26T14:21:31;13.77;;;5.33;;
8572;SDS011;4324;42.012;24.872;2023-02-26T14:24:05;10.33;;;5.17;;
8572;SDS011;4324;42.012;24.872;2023-02-26T14:26:43;15.03;;;6.47;;
8572;SDS011;4324;42.012;24.872;2023-02-26T14:29:15;12.90;;;7.10;;
8572;SDS011;4324;42.012;24.872;2023-02-26T14:31:54;12.67;;;5.43;;
8572;SDS011;4324;42.012;24.872;2023-02-26T14:34:30;10.53;;;5.13;;
8572;SDS011;4324;42.012;24.872;2023-02-26T14:37:01;9.87;;;4.43;;
8572;SDS011;4324;42.012;24.872;2023-02-26T14:39:33;12.80;;;5.60;;
8572;SDS011;4324;42.012;24.872;2023-02-26T14:42:05;12.27;;;5.73;;
8572;SDS011;4324;42.012;24.872;2023-02-26T14:44:37;15.63;;;8.00;;
8572;SDS011;4324;42.012;24.872;2023-02-26T14:47:06;14.67;;;7.50;;
8572;SDS011;4324;42.012;24.872;2023-02-26T14:49:35;14.47;;;8.27;;
8572;SDS011;4324;42.012;24.872;2023-02-26T14:58:04;13.17;;;6.07;;
8572;SDS011;4324;42.012;24.872;2023-02-26T15:00:46;14.50;;;5.00;;
8572;SDS011;4324;42.012;24.872;2023-02-26T15:03:26;12.67;;;4.93;;
8572;SDS011;4324;42.012;24.872;2023-02-26T15:06:11;11.47;;;4.70;;
8572;SDS011;4324;42.012;24.872;2023-02-26T15:08:53;10.67;;;5.77;;
8572;SDS011;4324;42.012;24.872;2023-02-26T15:11:43;13.23;;;5.50;;
8572;SDS011;4324;42.012;24.872;2023-02-26T15:14:40;11.67;;;4.67;;
8572;SDS011;4324;42.012;24.872;2023-02-26T15:17:35;13.87;;;5.77;;
8572;SDS011;4324;42.012;24.872;2023-02-26T15:20:16;10.13;;;4.47;;
8572;SDS011;4324;42.012;24.872;2023-02-26T15:25:50;14.50;;;6.00;;
8572;SDS011;4324;42.012;24.872;2023-02-26T15:28:19;8.97;;;4.87;;
8572;SDS011;4324;42.012;24.872;2023-02-26T15:30:52;11.40;;;5.17;;
8572;SDS011;4324;42.012;24.872;2023-02-26T15:33:22;9.07;;;4.77;;
8572;SDS011;4324;42.012;24.872;2023-02-26T15:35:50;8.53;;;4.73;;
8572;SDS011;4324;42.012;24.872;2023-02-26T15:38:20;9.57;;;4.53;;
8572;SDS011;4324;42.012;24.872;2023-02-26T15:40:48;10.97;;;4.00;;